»·PEaware :: N334PL KSNA-KRNM

N334PL :: KSNA-KRNM

FLIGHT INFORMATION

Flight Status: Arrived
Operator: Privately registered:
United States
More flights under this callsign
Pilot: Anonymous 31783 (31783)
Aircraft: BEECH AIRCRAFT BONANZA
(BE36)
More flights by this aircraft type
Origin: KSNA John Wayne-Orange Co
United States
Destination: KRNM Ramona
United States
More flights between these airports :: More routes between these airports
Route: V23 OCN V208 JLI
File this flight plan on PilotEdge
Remarks:
Altitude:
(Current/Filed)
7,000ft
Speed:
(Current/Filed)
120kts
Departed: 26-Oct-20 04:37 PM
Arrived: 26-Oct-20 05:14 PM
Distance/Time
Traveled:
6774nm/0:37
Distance/Time
To Go:
Arrived

Flight Plot

Page will automatically refresh every two minutes.


Map Options




Map Legend


Flown Route
Filed Route
Departure Airport
Arrival Airport
Navaid (VOR, NDB)
Fix

Horizontal Profiles

Position Reports

Time Latitude Longitude Heading Altitude Ground
Speed
26-Oct-20 16:19 33.670161 -117.869170 38 52ft 0kts
26-Oct-20 16:20 33.670161 -117.869170 38 52ft 0kts
26-Oct-20 16:20 33.670161 -117.869170 38 52ft 0kts
26-Oct-20 16:22 33.670161 -117.869170 38 52ft 0kts
26-Oct-20 16:23 33.670161 -117.869170 38 52ft 0kts
26-Oct-20 16:24 33.670161 -117.869170 38 52ft 0kts
26-Oct-20 16:25 33.670161 -117.869170 38 52ft 0kts
26-Oct-20 16:25 33.670161 -117.869170 38 52ft 0kts
26-Oct-20 16:27 33.670161 -117.869170 38 52ft 0kts
26-Oct-20 16:27 33.670161 -117.869170 38 52ft 0kts
26-Oct-20 16:29 33.670161 -117.869170 38 52ft 0kts
26-Oct-20 16:29 33.670161 -117.869170 38 52ft 0kts
26-Oct-20 16:30 33.670161 -117.869170 38 52ft 0kts
26-Oct-20 16:31 33.669495 -117.870177 216 53ft 20kts
26-Oct-20 16:32 33.667551 -117.872856 290 60ft 0kts
26-Oct-20 16:33 33.667551 -117.872856 290 60ft 0kts
26-Oct-20 16:34 33.667551 -117.872856 290 60ft 0kts
26-Oct-20 16:35 33.667681 -117.873379 286 62ft 2kts
26-Oct-20 16:36 33.682618 -117.864430 21 425ft 90kts
26-Oct-20 16:37 33.682698 -117.891164 252 1034ft 117kts
26-Oct-20 16:38 33.671868 -117.931436 252 1734ft 131kts
26-Oct-20 16:39 33.659990 -117.975846 252 1997ft 149kts
26-Oct-20 16:40 33.647185 -118.023983 252 2000ft 153kts
26-Oct-20 16:41 33.623021 -118.038545 106 2520ft 138kts
26-Oct-20 16:42 33.605371 -117.997957 113 3117ft 137kts
26-Oct-20 16:43 33.590991 -117.955618 112 3717ft 136kts
26-Oct-20 16:44 33.575274 -117.914740 115 4316ft 134kts
26-Oct-20 16:45 33.559545 -117.874570 115 4898ft 133kts
26-Oct-20 16:46 33.541644 -117.832043 118 4997ft 150kts
26-Oct-20 16:47 33.521240 -117.787752 122 4999ft 152kts
26-Oct-20 16:48 33.498440 -117.744863 124 5000ft 152kts
26-Oct-20 16:49 33.476289 -117.701206 125 5000ft 153kts
26-Oct-20 16:50 33.449131 -117.662155 133 4999ft 152kts
26-Oct-20 16:51 33.418546 -117.627024 138 4999ft 152kts
26-Oct-20 16:52 33.389605 -117.589819 134 5000ft 152kts
26-Oct-20 16:53 33.360106 -117.553350 134 4999ft 152kts
26-Oct-20 16:54 33.328971 -117.518986 140 4999ft 152kts
26-Oct-20 16:55 33.295539 -117.487724 135 4999ft 152kts
26-Oct-20 16:56 33.268183 -117.449493 139 5000ft 152kts
26-Oct-20 16:57 33.237550 -117.414899 108 4997ft 152kts
26-Oct-20 16:58 33.236022 -117.364327 95 5000ft 153kts
26-Oct-20 16:59 33.229267 -117.314248 103 4999ft 153kts
26-Oct-20 17:00 33.220535 -117.264457 99 5000ft 153kts
26-Oct-20 17:01 33.214178 -117.214155 96 4999ft 153kts
26-Oct-20 17:02 33.201436 -117.166661 122 4998ft 153kts
26-Oct-20 17:03 33.178850 -117.123694 122 5002ft 153kts
26-Oct-20 17:04 33.156374 -117.080849 122 4157ft 141kts
26-Oct-20 17:05 33.138277 -117.046169 122 4004ft 109kts
26-Oct-20 17:06 33.123009 -117.016628 122 4005ft 100kts
26-Oct-20 17:07 33.108740 -116.988906 122 4003ft 97kts
26-Oct-20 17:08 33.099366 -116.959012 102 3998ft 100kts
26-Oct-20 17:09 33.093614 -116.925615 102 4001ft 105kts
26-Oct-20 17:10 33.079748 -116.899433 160 3917ft 106kts
26-Oct-20 17:11 33.052704 -116.887270 187 2948ft 98kts
26-Oct-20 17:12 33.038099 -116.908676 280 1484ft 94kts
26-Oct-20 17:13 33.039525 -116.915020 341 1393ft 0kts
26-Oct-20 17:14 33.040061 -116.916224 285 1392ft 12kts
26-Oct-20 17:15 33.040961 -116.917540 336 1392ft 14kts
26-Oct-20 17:16 33.040961 -116.917540 336 1392ft 14kts
26-Oct-20 17:17 33.040961 -116.917540 336 1392ft 14kts
26-Oct-20 17:18 33.041036 -116.917580 335 1392ft 13kts
26-Oct-20 17:19 0.000000 0.000000 0 0ft 0kts
26-Oct-20 17:20 0.000000 0.000000 0 0ft 0kts
26-Oct-20 17:21 0.000000 0.000000 0 0ft 0kts
26-Oct-20 17:22 0.000000 0.000000 0 0ft 0kts
26-Oct-20 17:23 0.000000 0.000000 0 0ft 0kts
26-Oct-20 17:24 0.000000 0.000000 0 0ft 0kts
26-Oct-20 17:25 0.000000 0.000000 0 0ft 0kts
26-Oct-20 17:26 0.000000 0.000000 0 0ft 0kts
26-Oct-20 17:27 0.000000 0.000000 0 0ft 0kts
26-Oct-20 17:28 0.000000 0.000000 0 0ft 0kts

Navigation Log

Ident Type
Flight plan parsing failed, navigation log unavailable